sensor_id;sensor_type;location;lat;lon;timestamp;P1;durP1;ratioP1;P2;durP2;ratioP2
7493;SDS011;3788;49.902;8.590;2023-03-29T00:01:30;1.17;;;1.17;;
7493;SDS011;3788;49.902;8.590;2023-03-29T00:03:58;1.30;;;1.20;;
7493;SDS011;3788;49.902;8.590;2023-03-29T00:06:25;1.30;;;1.20;;
7493;SDS011;3788;49.902;8.590;2023-03-29T00:08:57;1.30;;;1.20;;
7493;SDS011;3788;49.902;8.590;2023-03-29T00:11:26;1.47;;;1.30;;
7493;SDS011;3788;49.902;8.590;2023-03-29T00:13:52;1.47;;;1.30;;
7493;SDS011;3788;49.902;8.590;2023-03-29T00:16:19;1.67;;;1.23;;
7493;SDS011;3788;49.902;8.590;2023-03-29T00:18:46;1.87;;;1.33;;
7493;SDS011;3788;49.902;8.590;2023-03-29T00:21:15;1.40;;;1.27;;
7493;SDS011;3788;49.902;8.590;2023-03-29T00:23:42;1.00;;;1.00;;
7493;SDS011;3788;49.902;8.590;2023-03-29T00:26:09;1.30;;;1.20;;
7493;SDS011;3788;49.902;8.590;2023-03-29T00:28:37;1.50;;;1.13;;
7493;SDS011;3788;49.902;8.590;2023-03-29T00:31:05;1.43;;;1.20;;
7493;SDS011;3788;49.902;8.590;2023-03-29T00:33:33;1.40;;;1.30;;
7493;SDS011;3788;49.902;8.590;2023-03-29T00:36:00;1.33;;;1.23;;
7493;SDS011;3788;49.902;8.590;2023-03-29T00:38:28;1.37;;;1.27;;
7493;SDS011;3788;49.902;8.590;2023-03-29T00:40:55;2.43;;;1.53;;
7493;SDS011;3788;49.902;8.590;2023-03-29T00:43:22;1.40;;;1.30;;
7493;SDS011;3788;49.902;8.590;2023-03-29T00:45:50;1.47;;;1.37;;
7493;SDS011;3788;49.902;8.590;2023-03-29T00:48:17;2.37;;;1.40;;
7493;SDS011;3788;49.902;8.590;2023-03-29T00:50:48;2.50;;;1.40;;
7493;SDS011;3788;49.902;8.590;2023-03-29T00:53:18;1.17;;;1.07;;
7493;SDS011;3788;49.902;8.590;2023-03-29T00:55:50;1.60;;;1.50;;
7493;SDS011;3788;49.902;8.590;2023-03-29T00:58:21;2.17;;;1.60;;
7493;SDS011;3788;49.902;8.590;2023-03-29T01:00:56;1.30;;;1.20;;
7493;SDS011;3788;49.902;8.590;2023-03-29T01:03:26;1.20;;;1.10;;
7493;SDS011;3788;49.902;8.590;2023-03-29T01:05:57;1.47;;;1.27;;
7493;SDS011;3788;49.902;8.590;2023-03-29T01:08:28;1.40;;;1.30;;
7493;SDS011;3788;49.902;8.590;2023-03-29T01:11:01;1.00;;;1.00;;
7493;SDS011;3788;49.902;8.590;2023-03-29T01:13:32;1.20;;;1.10;;
7493;SDS011;3788;49.902;8.590;2023-03-29T01:16:05;1.17;;;1.07;;
7493;SDS011;3788;49.902;8.590;2023-03-29T01:18:34;1.00;;;1.00;;
7493;SDS011;3788;49.902;8.590;2023-03-29T01:21:13;1.20;;;1.13;;
7493;SDS011;3788;49.902;8.590;2023-03-29T01:23:59;1.40;;;1.30;;
7493;SDS011;3788;49.902;8.590;2023-03-29T01:26:51;1.57;;;1.30;;
7493;SDS011;3788;49.902;8.590;2023-03-29T01:29:25;1.20;;;1.10;;
7493;SDS011;3788;49.902;8.590;2023-03-29T01:31:58;1.60;;;1.50;;
7493;SDS011;3788;49.902;8.590;2023-03-29T01:34:30;1.37;;;1.27;;
7493;SDS011;3788;49.902;8.590;2023-03-29T01:37:02;1.33;;;1.23;;
7493;SDS011;3788;49.902;8.590;2023-03-29T01:39:32;1.37;;;1.27;;
7493;SDS011;3788;49.902;8.590;2023-03-29T01:42:01;1.63;;;1.40;;
7493;SDS011;3788;49.902;8.590;2023-03-29T01:44:38;1.67;;;1.57;;
7493;SDS011;3788;49.902;8.590;2023-03-29T01:47:14;1.43;;;1.33;;
7493;SDS011;3788;49.902;8.590;2023-03-29T01:49:45;1.30;;;1.20;;
7493;SDS011;3788;49.902;8.590;2023-03-29T01:52:23;1.30;;;1.20;;
7493;SDS011;3788;49.902;8.590;2023-03-29T01:54:55;1.77;;;1.50;;
7493;SDS011;3788;49.902;8.590;2023-03-29T01:57:27;1.30;;;1.20;;
7493;SDS011;3788;49.902;8.590;2023-03-29T01:59:58;1.57;;;1.13;;
7493;SDS011;3788;49.902;8.590;2023-03-29T02:02:35;1.50;;;1.40;;
7493;SDS011;3788;49.902;8.590;2023-03-29T02:05:05;1.30;;;1.20;;
7493;SDS011;3788;49.902;8.590;2023-03-29T02:07:34;1.07;;;1.07;;
7493;SDS011;3788;49.902;8.590;2023-03-29T02:10:05;1.43;;;1.33;;
7493;SDS011;3788;49.902;8.590;2023-03-29T02:12:34;1.30;;;1.20;;
7493;SDS011;3788;49.902;8.590;2023-03-29T02:15:02;1.20;;;1.10;;
7493;SDS011;3788;49.902;8.590;2023-03-29T02:17:31;1.60;;;1.50;;
7493;SDS011;3788;49.902;8.590;2023-03-29T02:19:58;1.60;;;1.30;;
7493;SDS011;3788;49.902;8.590;2023-03-29T02:22:32;1.50;;;1.40;;
7493;SDS011;3788;49.902;8.590;2023-03-29T02:25:06;1.27;;;1.17;;
7493;SDS011;3788;49.902;8.590;2023-03-29T02:27:34;1.70;;;1.60;;
7493;SDS011;3788;49.902;8.590;2023-03-29T02:30:03;1.20;;;1.20;;
7493;SDS011;3788;49.902;8.590;2023-03-29T02:32:32;1.40;;;1.40;;
7493;SDS011;3788;49.902;8.590;2023-03-29T02:35:06;1.53;;;1.23;;
7493;SDS011;3788;49.902;8.590;2023-03-29T02:37:37;2.47;;;1.50;;
7493;SDS011;3788;49.902;8.590;2023-03-29T02:40:08;1.87;;;1.40;;
7493;SDS011;3788;49.902;8.590;2023-03-29T02:42:38;1.43;;;1.30;;
7493;SDS011;3788;49.902;8.590;2023-03-29T02:45:07;2.00;;;1.50;;
7493;SDS011;3788;49.902;8.590;2023-03-29T02:47:39;1.83;;;1.63;;
7493;SDS011;3788;49.902;8.590;2023-03-29T02:50:09;1.50;;;1.40;;
7493;SDS011;3788;49.902;8.590;2023-03-29T02:52:37;2.47;;;1.60;;
7493;SDS011;3788;49.902;8.590;2023-03-29T02:55:07;1.63;;;1.30;;
7493;SDS011;3788;49.902;8.590;2023-03-29T02:57:39;1.67;;;1.57;;
7493;SDS011;3788;49.902;8.590;2023-03-29T03:00:09;3.50;;;1.63;;
7493;SDS011;3788;49.902;8.590;2023-03-29T03:02:38;2.47;;;1.40;;
7493;SDS011;3788;49.902;8.590;2023-03-29T03:05:09;1.90;;;1.70;;
7493;SDS011;3788;49.902;8.590;2023-03-29T03:07:36;2.67;;;2.07;;
7493;SDS011;3788;49.902;8.590;2023-03-29T03:10:05;1.57;;;1.43;;
7493;SDS011;3788;49.902;8.590;2023-03-29T03:12:32;3.33;;;1.97;;
7493;SDS011;3788;49.902;8.590;2023-03-29T03:14:59;1.43;;;1.33;;
7493;SDS011;3788;49.902;8.590;2023-03-29T03:17:27;2.97;;;1.73;;
7493;SDS011;3788;49.902;8.590;2023-03-29T03:19:54;2.73;;;2.07;;
7493;SDS011;3788;49.902;8.590;2023-03-29T03:22:21;1.83;;;1.53;;
7493;SDS011;3788;49.902;8.590;2023-03-29T03:24:48;2.43;;;1.50;;
7493;SDS011;3788;49.902;8.590;2023-03-29T03:27:15;1.90;;;1.40;;
7493;SDS011;3788;49.902;8.590;2023-03-29T03:29:42;1.80;;;1.70;;
7493;SDS011;3788;49.902;8.590;2023-03-29T03:32:09;2.00;;;1.33;;
7493;SDS011;3788;49.902;8.590;2023-03-29T03:34:37;2.23;;;1.70;;
7493;SDS011;3788;49.902;8.590;2023-03-29T03:37:04;2.93;;;1.73;;
7493;SDS011;3788;49.902;8.590;2023-03-29T03:39:30;2.63;;;1.70;;
7493;SDS011;3788;49.902;8.590;2023-03-29T03:41:57;2.13;;;1.70;;
7493;SDS011;3788;49.902;8.590;2023-03-29T03:44:24;2.13;;;1.73;;
7493;SDS011;3788;49.902;8.590;2023-03-29T03:46:50;2.33;;;1.90;;
7493;SDS011;3788;49.902;8.590;2023-03-29T03:49:17;2.07;;;1.60;;
7493;SDS011;3788;49.902;8.590;2023-03-29T03:51:47;2.97;;;1.60;;
7493;SDS011;3788;49.902;8.590;2023-03-29T03:54:13;1.50;;;1.40;;
7493;SDS011;3788;49.902;8.590;2023-03-29T03:56:40;1.70;;;1.53;;
7493;SDS011;3788;49.902;8.590;2023-03-29T03:59:07;2.47;;;1.90;;
7493;SDS011;3788;49.902;8.590;2023-03-29T04:01:34;1.60;;;1.50;;
7493;SDS011;3788;49.902;8.590;2023-03-29T04:04:01;3.33;;;2.40;;
7493;SDS011;3788;49.902;8.590;2023-03-29T04:06:28;2.13;;;1.70;;
7493;SDS011;3788;49.902;8.590;2023-03-29T04:08:56;2.27;;;2.07;;
7493;SDS011;3788;49.902;8.590;2023-03-29T04:11:23;4.90;;;1.80;;
7493;SDS011;3788;49.902;8.590;2023-03-29T04:13:50;3.13;;;1.80;;
7493;SDS011;3788;49.902;8.590;2023-03-29T04:16:17;1.77;;;1.47;;
7493;SDS011;3788;49.902;8.590;2023-03-29T04:18:44;1.70;;;1.40;;
7493;SDS011;3788;49.902;8.590;2023-03-29T04:21:10;1.60;;;1.50;;
7493;SDS011;3788;49.902;8.590;2023-03-29T04:23:37;1.87;;;1.70;;
7493;SDS011;3788;49.902;8.590;2023-03-29T04:26:05;1.77;;;1.37;;
7493;SDS011;3788;49.902;8.590;2023-03-29T04:28:32;1.77;;;1.67;;
7493;SDS011;3788;49.902;8.590;2023-03-29T04:30:59;1.57;;;1.47;;
7493;SDS011;3788;49.902;8.590;2023-03-29T04:33:26;2.03;;;1.70;;
7493;SDS011;3788;49.902;8.590;2023-03-29T04:35:53;1.50;;;1.40;;
7493;SDS011;3788;49.902;8.590;2023-03-29T04:38:20;1.80;;;1.70;;
7493;SDS011;3788;49.902;8.590;2023-03-29T04:40:47;2.00;;;1.90;;
7493;SDS011;3788;49.902;8.590;2023-03-29T04:43:15;1.43;;;1.30;;
7493;SDS011;3788;49.902;8.590;2023-03-29T04:45:42;1.60;;;1.50;;
7493;SDS011;3788;49.902;8.590;2023-03-29T04:48:09;1.40;;;1.30;;
7493;SDS011;3788;49.902;8.590;2023-03-29T04:50:36;1.50;;;1.40;;
7493;SDS011;3788;49.902;8.590;2023-03-29T04:53:03;1.60;;;1.50;;
7493;SDS011;3788;49.902;8.590;2023-03-29T04:55:30;1.43;;;1.33;;
7493;SDS011;3788;49.902;8.590;2023-03-29T04:57:56;1.60;;;1.50;;
7493;SDS011;3788;49.902;8.590;2023-03-29T05:00:24;1.67;;;1.57;;
7493;SDS011;3788;49.902;8.590;2023-03-29T05:02:52;1.97;;;1.77;;
7493;SDS011;3788;49.902;8.590;2023-03-29T05:05:19;2.63;;;1.80;;
7493;SDS011;3788;49.902;8.590;2023-03-29T05:07:46;1.70;;;1.60;;
7493;SDS011;3788;49.902;8.590;2023-03-29T05:10:13;2.13;;;1.90;;
7493;SDS011;3788;49.902;8.590;2023-03-29T05:12:40;4.20;;;2.00;;
7493;SDS011;3788;49.902;8.590;2023-03-29T05:15:07;2.33;;;2.13;;
7493;SDS011;3788;49.902;8.590;2023-03-29T05:17:36;1.70;;;1.60;;
7493;SDS011;3788;49.902;8.590;2023-03-29T05:20:03;2.03;;;1.90;;
7493;SDS011;3788;49.902;8.590;2023-03-29T05:22:33;3.43;;;1.90;;
7493;SDS011;3788;49.902;8.590;2023-03-29T05:25:02;2.10;;;1.90;;
7493;SDS011;3788;49.902;8.590;2023-03-29T05:27:29;2.80;;;2.10;;
7493;SDS011;3788;49.902;8.590;2023-03-29T05:29:57;2.40;;;2.20;;
7493;SDS011;3788;49.902;8.590;2023-03-29T05:32:24;2.47;;;2.27;;
7493;SDS011;3788;49.902;8.590;2023-03-29T05:34:52;2.33;;;2.00;;
7493;SDS011;3788;49.902;8.590;2023-03-29T05:37:19;2.37;;;2.10;;
7493;SDS011;3788;49.902;8.590;2023-03-29T05:39:45;2.30;;;2.10;;
7493;SDS011;3788;49.902;8.590;2023-03-29T05:42:13;2.40;;;2.20;;
7493;SDS011;3788;49.902;8.590;2023-03-29T05:44:42;2.87;;;2.40;;
7493;SDS011;3788;49.902;8.590;2023-03-29T05:47:09;3.10;;;2.27;;
7493;SDS011;3788;49.902;8.590;2023-03-29T05:49:35;2.83;;;2.20;;
7493;SDS011;3788;49.902;8.590;2023-03-29T05:52:04;3.37;;;2.13;;
7493;SDS011;3788;49.902;8.590;2023-03-29T05:54:30;3.33;;;2.13;;
7493;SDS011;3788;49.902;8.590;2023-03-29T05:56:57;2.77;;;2.27;;
7493;SDS011;3788;49.902;8.590;2023-03-29T05:59:24;2.80;;;2.07;;
7493;SDS011;3788;49.902;8.590;2023-03-29T06:01:52;2.30;;;2.10;;
7493;SDS011;3788;49.902;8.590;2023-03-29T06:04:19;2.83;;;2.10;;
7493;SDS011;3788;49.902;8.590;2023-03-29T06:06:45;3.63;;;2.80;;
7493;SDS011;3788;49.902;8.590;2023-03-29T06:09:13;3.57;;;2.30;;
7493;SDS011;3788;49.902;8.590;2023-03-29T06:11:40;3.57;;;2.73;;
7493;SDS011;3788;49.902;8.590;2023-03-29T06:14:07;2.47;;;2.27;;
7493;SDS011;3788;49.902;8.590;2023-03-29T06:16:34;2.37;;;2.17;;
7493;SDS011;3788;49.902;8.590;2023-03-29T06:19:01;2.60;;;2.40;;
7493;SDS011;3788;49.902;8.590;2023-03-29T06:21:29;2.90;;;2.47;;
7493;SDS011;3788;49.902;8.590;2023-03-29T06:23:56;3.87;;;2.60;;
7493;SDS011;3788;49.902;8.590;2023-03-29T06:26:25;3.00;;;2.20;;
7493;SDS011;3788;49.902;8.590;2023-03-29T06:28:52;3.23;;;2.63;;
7493;SDS011;3788;49.902;8.590;2023-03-29T06:31:19;2.43;;;2.10;;
7493;SDS011;3788;49.902;8.590;2023-03-29T06:33:46;4.07;;;3.33;;
7493;SDS011;3788;49.902;8.590;2023-03-29T06:36:13;3.43;;;2.73;;
7493;SDS011;3788;49.902;8.590;2023-03-29T06:38:40;3.80;;;2.80;;
7493;SDS011;3788;49.902;8.590;2023-03-29T06:41:09;3.60;;;2.87;;
7493;SDS011;3788;49.902;8.590;2023-03-29T06:43:38;3.30;;;2.80;;
7493;SDS011;3788;49.902;8.590;2023-03-29T06:46:06;3.00;;;2.73;;
7493;SDS011;3788;49.902;8.590;2023-03-29T06:48:35;4.57;;;2.50;;
7493;SDS011;3788;49.902;8.590;2023-03-29T06:51:02;4.47;;;3.03;;
7493;SDS011;3788;49.902;8.590;2023-03-29T06:53:29;4.03;;;2.60;;
7493;SDS011;3788;49.902;8.590;2023-03-29T06:55:56;4.20;;;2.83;;
7493;SDS011;3788;49.902;8.590;2023-03-29T06:58:24;2.80;;;2.60;;
7493;SDS011;3788;49.902;8.590;2023-03-29T07:00:52;2.40;;;2.03;;
7493;SDS011;3788;49.902;8.590;2023-03-29T07:03:25;3.37;;;2.37;;
7493;SDS011;3788;49.902;8.590;2023-03-29T07:05:52;2.53;;;2.33;;
7493;SDS011;3788;49.902;8.590;2023-03-29T07:08:25;2.67;;;2.47;;
7493;SDS011;3788;49.902;8.590;2023-03-29T07:10:55;3.17;;;2.40;;
7493;SDS011;3788;49.902;8.590;2023-03-29T07:13:23;5.40;;;2.80;;
7493;SDS011;3788;49.902;8.590;2023-03-29T07:15:50;6.33;;;2.73;;
7493;SDS011;3788;49.902;8.590;2023-03-29T07:18:18;3.67;;;2.87;;
7493;SDS011;3788;49.902;8.590;2023-03-29T07:20:45;2.47;;;2.13;;
7493;SDS011;3788;49.902;8.590;2023-03-29T07:23:12;4.87;;;3.27;;
7493;SDS011;3788;49.902;8.590;2023-03-29T07:25:39;3.00;;;2.70;;
7493;SDS011;3788;49.902;8.590;2023-03-29T07:28:05;4.63;;;3.30;;
7493;SDS011;3788;49.902;8.590;2023-03-29T07:30:33;3.50;;;3.20;;
7493;SDS011;3788;49.902;8.590;2023-03-29T07:33:01;4.40;;;2.90;;
7493;SDS011;3788;49.902;8.590;2023-03-29T07:35:29;3.67;;;2.77;;
7493;SDS011;3788;49.902;8.590;2023-03-29T07:37:56;3.10;;;2.60;;
7493;SDS011;3788;49.902;8.590;2023-03-29T07:40:24;3.80;;;3.13;;
7493;SDS011;3788;49.902;8.590;2023-03-29T07:42:51;4.27;;;3.10;;
7493;SDS011;3788;49.902;8.590;2023-03-29T07:45:19;3.30;;;3.10;;
7493;SDS011;3788;49.902;8.590;2023-03-29T07:47:49;4.47;;;2.80;;
7493;SDS011;3788;49.902;8.590;2023-03-29T07:50:20;2.70;;;2.50;;
7493;SDS011;3788;49.902;8.590;2023-03-29T07:52:48;3.07;;;2.77;;
7493;SDS011;3788;49.902;8.590;2023-03-29T07:55:15;4.83;;;2.67;;
7493;SDS011;3788;49.902;8.590;2023-03-29T07:57:42;2.80;;;2.60;;
7493;SDS011;3788;49.902;8.590;2023-03-29T08:00:09;3.97;;;2.70;;
7493;SDS011;3788;49.902;8.590;2023-03-29T08:02:40;2.80;;;2.60;;
7493;SDS011;3788;49.902;8.590;2023-03-29T08:05:08;3.80;;;2.50;;
7493;SDS011;3788;49.902;8.590;2023-03-29T08:07:36;4.07;;;2.80;;
7493;SDS011;3788;49.902;8.590;2023-03-29T08:10:06;3.67;;;2.93;;
7493;SDS011;3788;49.902;8.590;2023-03-29T08:12:34;5.43;;;2.93;;
7493;SDS011;3788;49.902;8.590;2023-03-29T08:15:01;2.87;;;2.57;;
7493;SDS011;3788;49.902;8.590;2023-03-29T08:17:28;3.73;;;2.93;;
7493;SDS011;3788;49.902;8.590;2023-03-29T08:19:54;3.33;;;2.43;;
7493;SDS011;3788;49.902;8.590;2023-03-29T08:22:21;3.97;;;2.57;;
7493;SDS011;3788;49.902;8.590;2023-03-29T08:24:48;2.47;;;2.13;;
7493;SDS011;3788;49.902;8.590;2023-03-29T08:27:17;4.33;;;2.70;;
7493;SDS011;3788;49.902;8.590;2023-03-29T08:29:43;3.77;;;2.77;;
7493;SDS011;3788;49.902;8.590;2023-03-29T08:32:10;2.67;;;2.43;;
7493;SDS011;3788;49.902;8.590;2023-03-29T08:34:37;2.30;;;2.10;;
7493;SDS011;3788;49.902;8.590;2023-03-29T08:37:04;3.57;;;2.90;;
7493;SDS011;3788;49.902;8.590;2023-03-29T08:39:30;2.70;;;2.50;;
7493;SDS011;3788;49.902;8.590;2023-03-29T08:42:00;4.33;;;2.70;;
7493;SDS011;3788;49.902;8.590;2023-03-29T08:44:46;2.53;;;1.97;;
7493;SDS011;3788;49.902;8.590;2023-03-29T08:47:21;2.37;;;2.10;;
7493;SDS011;3788;49.902;8.590;2023-03-29T08:49:55;4.53;;;2.50;;
7493;SDS011;3788;49.902;8.590;2023-03-29T08:52:26;3.77;;;2.10;;
7493;SDS011;3788;49.902;8.590;2023-03-29T08:54:58;3.17;;;2.43;;
7493;SDS011;3788;49.902;8.590;2023-03-29T08:57:27;3.23;;;2.80;;
7493;SDS011;3788;49.902;8.590;2023-03-29T08:59:58;2.30;;;2.10;;
7493;SDS011;3788;49.902;8.590;2023-03-29T09:02:29;2.40;;;2.20;;
7493;SDS011;3788;49.902;8.590;2023-03-29T09:04:59;3.10;;;2.37;;
7493;SDS011;3788;49.902;8.590;2023-03-29T09:07:33;3.87;;;2.80;;
7493;SDS011;3788;49.902;8.590;2023-03-29T09:10:00;3.43;;;2.60;;
7493;SDS011;3788;49.902;8.590;2023-03-29T09:12:31;3.63;;;2.53;;
7493;SDS011;3788;49.902;8.590;2023-03-29T09:15:10;3.30;;;2.03;;
7493;SDS011;3788;49.902;8.590;2023-03-29T09:17:47;4.70;;;2.87;;
7493;SDS011;3788;49.902;8.590;2023-03-29T09:20:21;3.80;;;3.00;;
7493;SDS011;3788;49.902;8.590;2023-03-29T09:22:59;2.53;;;2.20;;
7493;SDS011;3788;49.902;8.590;2023-03-29T09:25:37;2.83;;;2.40;;
7493;SDS011;3788;49.902;8.590;2023-03-29T09:28:12;2.97;;;2.77;;
7493;SDS011;3788;49.902;8.590;2023-03-29T09:30:46;3.67;;;3.33;;
7493;SDS011;3788;49.902;8.590;2023-03-29T09:33:18;3.80;;;2.67;;
7493;SDS011;3788;49.902;8.590;2023-03-29T09:35:52;2.93;;;2.67;;
7493;SDS011;3788;49.902;8.590;2023-03-29T09:38:22;2.70;;;2.50;;
7493;SDS011;3788;49.902;8.590;2023-03-29T09:40:50;3.10;;;2.70;;
7493;SDS011;3788;49.902;8.590;2023-03-29T09:43:24;4.97;;;3.17;;
7493;SDS011;3788;49.902;8.590;2023-03-29T09:45:57;3.27;;;2.47;;
7493;SDS011;3788;49.902;8.590;2023-03-29T09:48:28;4.30;;;2.83;;
7493;SDS011;3788;49.902;8.590;2023-03-29T09:50:58;2.93;;;2.57;;
7493;SDS011;3788;49.902;8.590;2023-03-29T09:53:27;2.97;;;2.13;;
7493;SDS011;3788;49.902;8.590;2023-03-29T09:55:54;4.03;;;3.00;;
7493;SDS011;3788;49.902;8.590;2023-03-29T09:58:21;3.27;;;2.50;;
7493;SDS011;3788;49.902;8.590;2023-03-29T10:00:51;3.03;;;2.37;;
7493;SDS011;3788;49.902;8.590;2023-03-29T10:03:21;4.80;;;2.87;;
7493;SDS011;3788;49.902;8.590;2023-03-29T10:05:50;5.27;;;2.97;;
7493;SDS011;3788;49.902;8.590;2023-03-29T10:08:19;3.77;;;2.47;;
7493;SDS011;3788;49.902;8.590;2023-03-29T10:10:48;3.47;;;2.60;;
7493;SDS011;3788;49.902;8.590;2023-03-29T10:13:17;4.30;;;2.80;;
7493;SDS011;3788;49.902;8.590;2023-03-29T10:15:55;4.67;;;2.63;;
7493;SDS011;3788;49.902;8.590;2023-03-29T10:18:24;2.87;;;2.57;;
7493;SDS011;3788;49.902;8.590;2023-03-29T10:20:56;3.63;;;2.73;;
7493;SDS011;3788;49.902;8.590;2023-03-29T10:23:28;4.53;;;2.90;;
7493;SDS011;3788;49.902;8.590;2023-03-29T10:25:56;3.47;;;2.77;;
7493;SDS011;3788;49.902;8.590;2023-03-29T10:28:23;3.93;;;2.70;;
7493;SDS011;3788;49.902;8.590;2023-03-29T10:30:52;4.63;;;2.73;;
7493;SDS011;3788;49.902;8.590;2023-03-29T10:33:22;4.50;;;2.10;;
7493;SDS011;3788;49.902;8.590;2023-03-29T10:35:54;3.73;;;2.90;;
7493;SDS011;3788;49.902;8.590;2023-03-29T10:38:22;3.33;;;2.40;;
7493;SDS011;3788;49.902;8.590;2023-03-29T10:40:52;4.00;;;2.20;;
7493;SDS011;3788;49.902;8.590;2023-03-29T10:43:22;4.10;;;2.87;;
7493;SDS011;3788;49.902;8.590;2023-03-29T10:45:51;4.33;;;3.00;;
7493;SDS011;3788;49.902;8.590;2023-03-29T10:48:23;4.23;;;2.67;;
7493;SDS011;3788;49.902;8.590;2023-03-29T10:50:56;4.57;;;2.67;;
7493;SDS011;3788;49.902;8.590;2023-03-29T10:53:26;2.43;;;2.20;;
7493;SDS011;3788;49.902;8.590;2023-03-29T10:55:56;3.80;;;2.60;;
7493;SDS011;3788;49.902;8.590;2023-03-29T10:58:33;3.80;;;2.97;;
7493;SDS011;3788;49.902;8.590;2023-03-29T11:01:05;3.17;;;2.40;;
7493;SDS011;3788;49.902;8.590;2023-03-29T11:03:41;3.27;;;2.13;;
7493;SDS011;3788;49.902;8.590;2023-03-29T11:06:25;6.33;;;2.80;;
7493;SDS011;3788;49.902;8.590;2023-03-29T11:08:57;2.80;;;2.53;;
7493;SDS011;3788;49.902;8.590;2023-03-29T11:11:34;4.80;;;2.90;;
7493;SDS011;3788;49.902;8.590;2023-03-29T11:14:12;3.83;;;2.70;;
7493;SDS011;3788;49.902;8.590;2023-03-29T11:16:48;3.00;;;2.27;;
7493;SDS011;3788;49.902;8.590;2023-03-29T11:19:31;5.87;;;2.90;;
7493;SDS011;3788;49.902;8.590;2023-03-29T11:22:12;3.73;;;2.67;;
7493;SDS011;3788;49.902;8.590;2023-03-29T11:24:51;4.30;;;2.63;;
7493;SDS011;3788;49.902;8.590;2023-03-29T11:27:32;3.80;;;2.77;;
7493;SDS011;3788;49.902;8.590;2023-03-29T11:30:06;2.90;;;2.63;;
7493;SDS011;3788;49.902;8.590;2023-03-29T11:32:40;2.90;;;2.23;;
7493;SDS011;3788;49.902;8.590;2023-03-29T11:35:21;3.97;;;2.60;;
7493;SDS011;3788;49.902;8.590;2023-03-29T11:38:01;3.97;;;3.37;;
7493;SDS011;3788;49.902;8.590;2023-03-29T11:40:37;2.87;;;2.63;;
7493;SDS011;3788;49.902;8.590;2023-03-29T11:43:10;3.53;;;2.50;;
7493;SDS011;3788;49.902;8.590;2023-03-29T11:45:41;2.70;;;2.07;;
7493;SDS011;3788;49.902;8.590;2023-03-29T11:48:14;5.57;;;3.17;;
7493;SDS011;3788;49.902;8.590;2023-03-29T11:50:49;3.63;;;2.77;;
7493;SDS011;3788;49.902;8.590;2023-03-29T11:53:20;3.10;;;2.63;;
7493;SDS011;3788;49.902;8.590;2023-03-29T11:55:50;3.67;;;2.40;;
7493;SDS011;3788;49.902;8.590;2023-03-29T11:58:19;3.37;;;2.90;;
7493;SDS011;3788;49.902;8.590;2023-03-29T12:00:52;3.83;;;2.87;;
7493;SDS011;3788;49.902;8.590;2023-03-29T12:03:27;3.27;;;2.50;;
7493;SDS011;3788;49.902;8.590;2023-03-29T12:06:03;4.93;;;2.73;;
7493;SDS011;3788;49.902;8.590;2023-03-29T12:08:37;4.03;;;2.50;;
7493;SDS011;3788;49.902;8.590;2023-03-29T12:11:07;2.53;;;2.03;;
7493;SDS011;3788;49.902;8.590;2023-03-29T12:13:40;3.70;;;2.57;;
7493;SDS011;3788;49.902;8.590;2023-03-29T12:16:12;3.00;;;2.57;;
7493;SDS011;3788;49.902;8.590;2023-03-29T12:18:43;3.60;;;2.43;;
7493;SDS011;3788;49.902;8.590;2023-03-29T12:21:15;4.90;;;2.63;;
7493;SDS011;3788;49.902;8.590;2023-03-29T12:23:45;3.23;;;2.33;;
7493;SDS011;3788;49.902;8.590;2023-03-29T12:26:18;3.13;;;2.80;;
7493;SDS011;3788;49.902;8.590;2023-03-29T12:29:15;3.53;;;2.70;;
7493;SDS011;3788;49.902;8.590;2023-03-29T12:31:55;2.47;;;2.23;;
7493;SDS011;3788;49.902;8.590;2023-03-29T12:34:33;4.83;;;3.60;;
7493;SDS011;3788;49.902;8.590;2023-03-29T12:37:16;3.73;;;2.60;;
7493;SDS011;3788;49.902;8.590;2023-03-29T12:40:01;4.63;;;2.37;;
7493;SDS011;3788;49.902;8.590;2023-03-29T12:42:42;4.60;;;2.20;;
7493;SDS011;3788;49.902;8.590;2023-03-29T12:45:12;4.80;;;2.77;;
7493;SDS011;3788;49.902;8.590;2023-03-29T12:47:45;3.00;;;2.50;;
7493;SDS011;3788;49.902;8.590;2023-03-29T12:50:15;2.40;;;2.10;;
7493;SDS011;3788;49.902;8.590;2023-03-29T12:53:01;3.27;;;2.40;;
7493;SDS011;3788;49.902;8.590;2023-03-29T12:55:31;3.87;;;2.40;;
7493;SDS011;3788;49.902;8.590;2023-03-29T12:58:21;3.77;;;2.90;;
7493;SDS011;3788;49.902;8.590;2023-03-29T13:00:55;3.63;;;2.40;;
7493;SDS011;3788;49.902;8.590;2023-03-29T13:03:33;3.63;;;2.60;;
7493;SDS011;3788;49.902;8.590;2023-03-29T13:06:07;4.37;;;2.27;;
7493;SDS011;3788;49.902;8.590;2023-03-29T13:08:37;3.10;;;2.40;;
7493;SDS011;3788;49.902;8.590;2023-03-29T13:11:08;4.80;;;2.60;;
7493;SDS011;3788;49.902;8.590;2023-03-29T13:13:39;5.03;;;3.03;;
7493;SDS011;3788;49.902;8.590;2023-03-29T13:16:09;3.40;;;2.37;;
7493;SDS011;3788;49.902;8.590;2023-03-29T13:18:46;2.60;;;2.40;;
7493;SDS011;3788;49.902;8.590;2023-03-29T13:21:35;3.53;;;2.07;;
7493;SDS011;3788;49.902;8.590;2023-03-29T13:24:17;4.00;;;2.80;;
7493;SDS011;3788;49.902;8.590;2023-03-29T13:26:56;4.47;;;2.80;;
7493;SDS011;3788;49.902;8.590;2023-03-29T13:29:41;5.27;;;3.30;;
7493;SDS011;3788;49.902;8.590;2023-03-29T13:32:20;3.13;;;2.50;;
7493;SDS011;3788;49.902;8.590;2023-03-29T13:34:56;4.80;;;2.80;;
7493;SDS011;3788;49.902;8.590;2023-03-29T13:37:31;2.90;;;2.40;;
7493;SDS011;3788;49.902;8.590;2023-03-29T13:42:55;5.27;;;2.60;;
7493;SDS011;3788;49.902;8.590;2023-03-29T13:45:24;3.30;;;2.40;;
7493;SDS011;3788;49.902;8.590;2023-03-29T13:48:00;2.70;;;2.37;;
7493;SDS011;3788;49.902;8.590;2023-03-29T13:50:32;5.60;;;2.50;;
7493;SDS011;3788;49.902;8.590;2023-03-29T13:53:03;7.30;;;2.20;;
7493;SDS011;3788;49.902;8.590;2023-03-29T13:55:39;2.90;;;2.40;;
7493;SDS011;3788;49.902;8.590;2023-03-29T13:58:10;3.03;;;2.13;;
7493;SDS011;3788;49.902;8.590;2023-03-29T14:00:43;3.47;;;2.30;;
7493;SDS011;3788;49.902;8.590;2023-03-29T14:03:14;3.83;;;2.10;;
7493;SDS011;3788;49.902;8.590;2023-03-29T14:05:46;3.53;;;2.10;;
7493;SDS011;3788;49.902;8.590;2023-03-29T14:08:15;2.63;;;2.10;;
7493;SDS011;3788;49.902;8.590;2023-03-29T14:10:49;2.50;;;2.23;;
7493;SDS011;3788;49.902;8.590;2023-03-29T14:13:19;2.40;;;2.20;;
7493;SDS011;3788;49.902;8.590;2023-03-29T14:15:48;2.17;;;1.97;;
7493;SDS011;3788;49.902;8.590;2023-03-29T14:18:18;2.30;;;2.10;;
7493;SDS011;3788;49.902;8.590;2023-03-29T14:20:48;3.03;;;2.53;;
7493;SDS011;3788;49.902;8.590;2023-03-29T14:23:19;2.33;;;1.90;;
7493;SDS011;3788;49.902;8.590;2023-03-29T14:25:50;4.07;;;2.13;;
7493;SDS011;3788;49.902;8.590;2023-03-29T14:28:18;3.03;;;2.20;;
7493;SDS011;3788;49.902;8.590;2023-03-29T14:30:45;2.03;;;1.83;;
7493;SDS011;3788;49.902;8.590;2023-03-29T14:33:13;3.60;;;2.20;;
7493;SDS011;3788;49.902;8.590;2023-03-29T14:35:49;2.97;;;2.10;;
7493;SDS011;3788;49.902;8.590;2023-03-29T14:38:17;2.60;;;1.80;;
7493;SDS011;3788;49.902;8.590;2023-03-29T14:40:44;2.77;;;1.87;;
7493;SDS011;3788;49.902;8.590;2023-03-29T14:43:13;2.40;;;1.90;;
7493;SDS011;3788;49.902;8.590;2023-03-29T14:45:44;2.30;;;1.90;;
7493;SDS011;3788;49.902;8.590;2023-03-29T14:48:12;3.00;;;2.00;;
7493;SDS011;3788;49.902;8.590;2023-03-29T14:50:40;2.27;;;1.80;;
7493;SDS011;3788;49.902;8.590;2023-03-29T14:53:09;3.70;;;2.00;;
7493;SDS011;3788;49.902;8.590;2023-03-29T14:55:42;2.80;;;1.97;;
7493;SDS011;3788;49.902;8.590;2023-03-29T14:58:14;2.30;;;1.83;;
7493;SDS011;3788;49.902;8.590;2023-03-29T15:00:46;2.37;;;2.10;;
7493;SDS011;3788;49.902;8.590;2023-03-29T15:03:15;3.13;;;1.83;;
7493;SDS011;3788;49.902;8.590;2023-03-29T15:05:46;2.20;;;1.93;;
7493;SDS011;3788;49.902;8.590;2023-03-29T15:08:16;2.20;;;1.60;;
7493;SDS011;3788;49.902;8.590;2023-03-29T15:10:48;3.17;;;2.07;;
7493;SDS011;3788;49.902;8.590;2023-03-29T15:13:18;2.80;;;1.80;;
7493;SDS011;3788;49.902;8.590;2023-03-29T15:15:49;3.57;;;1.77;;
7493;SDS011;3788;49.902;8.590;2023-03-29T15:18:20;2.87;;;1.93;;
7493;SDS011;3788;49.902;8.590;2023-03-29T15:20:54;3.17;;;1.90;;
7493;SDS011;3788;49.902;8.590;2023-03-29T15:23:22;4.77;;;2.10;;
7493;SDS011;3788;49.902;8.590;2023-03-29T15:25:51;3.23;;;1.70;;
7493;SDS011;3788;49.902;8.590;2023-03-29T15:28:23;4.03;;;1.87;;
7493;SDS011;3788;49.902;8.590;2023-03-29T15:30:59;2.43;;;1.70;;
7493;SDS011;3788;49.902;8.590;2023-03-29T15:33:30;3.00;;;1.47;;
7493;SDS011;3788;49.902;8.590;2023-03-29T15:35:59;2.50;;;1.70;;
7493;SDS011;3788;49.902;8.590;2023-03-29T15:38:28;2.90;;;1.80;;